createdAt,value
2023-03-30T00:00:46.537Z,16.67
2023-03-30T00:03:23.203Z,16.40
2023-03-30T00:05:52.322Z,16.60
2023-03-30T00:08:20.506Z,16.49
2023-03-30T00:10:48.266Z,16.61
2023-03-30T00:13:17.311Z,16.58
2023-03-30T00:15:45.081Z,16.34
2023-03-30T00:18:13.080Z,16.42
2023-03-30T00:20:43.313Z,16.18
2023-03-30T00:23:11.481Z,16.09
2023-03-30T00:25:39.243Z,16.17
2023-03-30T00:28:07.300Z,16.36
2023-03-30T00:30:35.188Z,16.15
2023-03-30T00:33:04.638Z,16.09
2023-03-30T00:35:32.515Z,16.14
2023-03-30T00:38:02.108Z,16.17
2023-03-30T00:40:31.787Z,15.80
2023-03-30T00:43:05.051Z,15.96
2023-03-30T00:45:34.162Z,16.21
2023-03-30T00:48:02.683Z,16.11
2023-03-30T00:50:36.321Z,16.32
2023-03-30T00:53:17.474Z,15.69
2023-03-30T00:55:46.824Z,15.90
2023-03-30T00:58:17.003Z,16.15
2023-03-30T01:00:47.571Z,16.01
2023-03-30T01:03:22.962Z,15.46
2023-03-30T01:06:40.708Z,15.62
2023-03-30T01:09:08.995Z,15.44
2023-03-30T01:11:36.745Z,15.41
2023-03-30T01:14:06.574Z,15.39
2023-03-30T01:16:52.650Z,15.43
2023-03-30T01:19:32.826Z,15.71
2023-03-30T01:22:20.680Z,15.70
2023-03-30T01:24:49.452Z,15.75
2023-03-30T01:27:16.947Z,15.64
2023-03-30T01:29:44.806Z,15.47
2023-03-30T01:32:18.676Z,15.44
2023-03-30T01:35:06.104Z,15.70
2023-03-30T01:37:33.680Z,15.61
2023-03-30T01:40:13.360Z,15.54
2023-03-30T01:42:47.117Z,15.60
2023-03-30T01:45:17.304Z,15.54
2023-03-30T01:47:53.808Z,15.45
2023-03-30T01:50:26.786Z,15.52
2023-03-30T01:53:05.257Z,15.41
2023-03-30T01:55:53.628Z,15.52
2023-03-30T01:58:32.067Z,15.28
2023-03-30T02:01:02.219Z,15.42
2023-03-30T02:03:31.948Z,15.38
2023-03-30T02:06:07.869Z,15.47
2023-03-30T02:08:37.124Z,15.32
2023-03-30T02:11:05.434Z,15.31
2023-03-30T02:13:33.256Z,15.47
2023-03-30T02:16:07.622Z,15.44
2023-03-30T02:18:38.354Z,15.35
2023-03-30T02:21:06.515Z,15.07
2023-03-30T02:23:39.687Z,15.13
2023-03-30T02:26:08.893Z,14.99
2023-03-30T02:28:36.508Z,15.06
2023-03-30T02:31:05.366Z,15.11
2023-03-30T02:33:39.447Z,15.20
2023-03-30T02:36:08.353Z,15.17
2023-03-30T02:38:42.171Z,15.14
2023-03-30T02:41:49.036Z,15.12
2023-03-30T02:44:32.831Z,14.98
2023-03-30T02:47:01.233Z,14.88
2023-03-30T02:49:36.328Z,14.78
2023-03-30T02:52:18.038Z,14.83
2023-03-30T02:54:51.229Z,14.95
2023-03-30T02:57:28.047Z,15.04
2023-03-30T03:00:09.271Z,14.70
2023-03-30T03:02:43.394Z,14.85
2023-03-30T03:05:27.181Z,14.61
2023-03-30T03:08:16.459Z,14.49
2023-03-30T03:10:46.218Z,14.43
2023-03-30T03:13:16.426Z,14.36
2023-03-30T03:15:46.518Z,14.05
2023-03-30T03:18:14.476Z,14.23
2023-03-30T03:20:43.689Z,13.87
2023-03-30T03:23:12.138Z,14.33
2023-03-30T03:25:45.884Z,14.23
2023-03-30T03:28:16.139Z,14.34
2023-03-30T03:30:49.429Z,14.49
2023-03-30T03:33:26.027Z,14.53
2023-03-30T03:36:13.999Z,14.60
2023-03-30T03:38:48.440Z,14.38
2023-03-30T03:41:17.000Z,14.23
2023-03-30T03:43:45.303Z,14.16
2023-03-30T03:46:14.308Z,14.10
2023-03-30T03:48:42.965Z,14.00
2023-03-30T03:51:11.439Z,13.95
2023-03-30T03:53:39.668Z,14.02
2023-03-30T03:56:12.140Z,14.13
2023-03-30T03:58:40.640Z,13.91
2023-03-30T04:01:08.720Z,13.82
2023-03-30T04:03:36.960Z,13.72
2023-03-30T04:06:04.667Z,13.86
2023-03-30T04:08:33.476Z,13.77
2023-03-30T04:11:12.351Z,14.05
2023-03-30T04:13:58.667Z,13.96
2023-03-30T04:16:45.176Z,13.79
2023-03-30T04:19:38.100Z,13.91
2023-03-30T04:22:26.037Z,14.20
2023-03-30T04:25:00.170Z,14.14
2023-03-30T04:27:54.138Z,14.53
2023-03-30T04:30:45.799Z,14.03
2023-03-30T04:33:35.199Z,14.34
2023-03-30T04:36:36.122Z,14.26
2023-03-30T04:39:23.851Z,14.39
2023-03-30T04:42:14.393Z,14.48
2023-03-30T04:45:01.200Z,14.71
2023-03-30T04:47:58.298Z,14.51
2023-03-30T04:50:45.464Z,14.53
2023-03-30T04:53:35.558Z,14.29
2023-03-30T04:56:31.864Z,14.53
2023-03-30T04:59:11.055Z,14.71
2023-03-30T05:02:02.146Z,14.71
2023-03-30T05:04:50.775Z,14.82
2023-03-30T05:07:37.445Z,14.84
2023-03-30T05:10:24.029Z,15.16
2023-03-30T05:13:10.172Z,15.03
2023-03-30T05:15:59.591Z,14.72
2023-03-30T05:18:51.628Z,14.44
2023-03-30T05:21:52.588Z,14.23
2023-03-30T05:24:46.541Z,14.24
2023-03-30T05:27:53.121Z,14.29
2023-03-30T05:30:30.027Z,14.42
2023-03-30T05:33:22.525Z,14.48
2023-03-30T05:36:19.272Z,14.73
2023-03-30T05:39:05.722Z,14.63
2023-03-30T05:41:56.371Z,14.77
2023-03-30T05:44:50.801Z,14.64
2023-03-30T05:47:18.514Z,14.47
2023-03-30T05:50:08.079Z,14.72
2023-03-30T05:52:56.131Z,14.80
2023-03-30T05:55:38.827Z,14.83
2023-03-30T05:58:27.781Z,14.87
2023-03-30T06:01:09.751Z,14.92
2023-03-30T06:03:42.471Z,14.98
2023-03-30T06:06:12.561Z,14.75
2023-03-30T06:08:42.227Z,14.40
2023-03-30T06:11:15.653Z,14.29
2023-03-30T06:13:51.917Z,14.37
2023-03-30T06:16:20.156Z,14.50
2023-03-30T06:18:48.447Z,14.48
2023-03-30T06:21:16.907Z,14.66
2023-03-30T06:24:00.767Z,14.76
2023-03-30T06:26:31.646Z,14.96
2023-03-30T06:28:59.603Z,14.98
2023-03-30T06:31:27.819Z,14.99
2023-03-30T06:34:12.190Z,14.23
2023-03-30T06:36:45.187Z,14.63
2023-03-30T06:39:17.681Z,14.36
2023-03-30T06:41:46.650Z,14.59
2023-03-30T06:44:34.868Z,14.51
2023-03-30T06:47:10.090Z,14.49
2023-03-30T06:49:38.244Z,14.72
2023-03-30T06:52:30.068Z,14.68
2023-03-30T06:54:57.864Z,14.85
2023-03-30T06:57:26.081Z,14.73
2023-03-30T06:59:53.930Z,14.33
2023-03-30T07:02:22.177Z,14.30
2023-03-30T07:05:04.568Z,14.85
2023-03-30T07:07:37.917Z,14.42
2023-03-30T07:10:10.612Z,14.27
2023-03-30T07:12:39.580Z,14.78
2023-03-30T07:15:09.228Z,14.76
2023-03-30T07:17:38.241Z,14.54
2023-03-30T07:20:08.337Z,15.02
2023-03-30T07:22:49.459Z,15.14
2023-03-30T07:25:17.729Z,15.12
2023-03-30T07:27:45.888Z,15.18
2023-03-30T07:30:21.807Z,15.48
2023-03-30T07:32:58.641Z,15.35
2023-03-30T07:35:27.297Z,15.22
2023-03-30T07:38:02.868Z,14.92
2023-03-30T07:40:38.745Z,15.41
2023-03-30T07:43:07.964Z,15.28
2023-03-30T07:45:36.327Z,15.40
2023-03-30T07:48:07.360Z,15.05
2023-03-30T07:50:35.697Z,15.12
2023-03-30T07:53:04.636Z,15.14
2023-03-30T07:55:32.879Z,15.61
2023-03-30T07:58:08.049Z,15.79
2023-03-30T08:00:35.886Z,15.79
2023-03-30T08:03:22.715Z,16.17
2023-03-30T08:06:00.914Z,16.37
2023-03-30T08:08:33.706Z,16.57
2023-03-30T08:11:02.296Z,16.77
2023-03-30T08:13:32.125Z,16.53
2023-03-30T08:16:00.179Z,16.86
2023-03-30T08:18:29.133Z,16.87
2023-03-30T08:20:57.455Z,16.42
2023-03-30T08:23:25.595Z,16.46
2023-03-30T08:25:56.632Z,16.46
2023-03-30T08:28:25.106Z,16.83
2023-03-30T08:30:54.849Z,16.79
2023-03-30T08:33:25.923Z,16.79
2023-03-30T08:35:53.790Z,16.92
2023-03-30T08:38:21.918Z,16.88
2023-03-30T08:40:50.791Z,16.33
2023-03-30T08:43:26.039Z,16.19
2023-03-30T08:45:54.131Z,15.92
2023-03-30T08:48:23.517Z,16.06
2023-03-30T08:51:02.421Z,16.47
2023-03-30T08:53:33.012Z,16.77
2023-03-30T08:56:08.245Z,16.66
2023-03-30T08:58:45.120Z,17.01
2023-03-30T09:01:39.010Z,17.09
2023-03-30T09:04:33.337Z,17.02
2023-03-30T09:07:14.576Z,17.01
2023-03-30T09:09:44.747Z,17.11
2023-03-30T09:12:23.171Z,17.05
2023-03-30T09:15:11.388Z,17.12
2023-03-30T09:17:41.877Z,17.00
2023-03-30T09:20:16.391Z,16.97
2023-03-30T09:22:45.185Z,17.25
2023-03-30T09:25:18.473Z,17.40
2023-03-30T09:27:51.641Z,17.22
2023-03-30T09:30:21.573Z,17.18
2023-03-30T09:33:00.388Z,17.25
2023-03-30T09:35:41.400Z,17.53
2023-03-30T09:38:13.667Z,17.56
2023-03-30T09:40:44.735Z,17.41
2023-03-30T09:43:20.654Z,17.20
2023-03-30T09:45:48.730Z,17.35
2023-03-30T09:48:16.476Z,17.32
2023-03-30T09:50:45.615Z,17.44
2023-03-30T09:53:25.044Z,17.55
2023-03-30T09:55:56.282Z,17.55
2023-03-30T09:58:29.078Z,17.52
2023-03-30T10:01:12.909Z,17.69
2023-03-30T10:03:44.706Z,17.82
2023-03-30T10:06:19.971Z,17.86
2023-03-30T10:08:50.839Z,17.85
2023-03-30T10:11:41.878Z,18.01
2023-03-30T10:14:19.993Z,17.88
2023-03-30T10:16:47.995Z,17.99
2023-03-30T10:19:23.121Z,17.90
2023-03-30T10:21:59.012Z,17.51
2023-03-30T10:24:28.424Z,17.07
2023-03-30T10:26:58.020Z,17.40
2023-03-30T10:29:29.781Z,17.42
2023-03-30T10:32:00.205Z,17.51
2023-03-30T10:34:41.683Z,17.29
2023-03-30T10:37:12.237Z,17.66
2023-03-30T10:39:41.288Z,17.25
2023-03-30T10:42:14.094Z,17.53
2023-03-30T10:44:43.897Z,17.96
2023-03-30T10:47:30.651Z,17.99
2023-03-30T10:50:07.270Z,18.35
2023-03-30T10:52:36.590Z,18.57
2023-03-30T10:55:15.008Z,18.42
2023-03-30T10:58:06.038Z,18.43
2023-03-30T11:00:45.753Z,18.67
2023-03-30T11:03:21.067Z,18.42
2023-03-30T11:05:51.857Z,17.82
2023-03-30T11:08:23.076Z,18.41
2023-03-30T11:10:53.632Z,17.60
2023-03-30T11:13:24.240Z,18.05
2023-03-30T11:15:52.446Z,18.14
2023-03-30T11:18:29.423Z,18.42
2023-03-30T11:21:00.643Z,18.45
2023-03-30T11:23:37.498Z,18.38
2023-03-30T11:26:12.033Z,18.37
2023-03-30T11:28:43.002Z,18.58
2023-03-30T11:31:27.129Z,18.64
2023-03-30T11:33:59.173Z,18.80
2023-03-30T11:36:34.915Z,18.71
2023-03-30T11:39:04.900Z,18.97
2023-03-30T11:41:38.814Z,19.15
2023-03-30T11:44:09.904Z,19.17
2023-03-30T11:47:00.514Z,19.50
2023-03-30T11:49:49.785Z,19.66
2023-03-30T11:52:36.007Z,19.79
2023-03-30T11:55:04.477Z,20.36
2023-03-30T11:57:44.989Z,20.71
2023-03-30T12:00:32.772Z,20.95
2023-03-30T12:03:08.511Z,20.87
2023-03-30T12:05:59.584Z,20.82
2023-03-30T12:08:44.065Z,20.39
2023-03-30T12:11:28.213Z,20.27
2023-03-30T12:13:56.477Z,20.44
2023-03-30T12:16:47.058Z,20.87
2023-03-30T12:19:25.508Z,20.95
2023-03-30T12:21:59.657Z,20.84
2023-03-30T12:24:45.170Z,20.15
2023-03-30T12:27:13.086Z,20.22
2023-03-30T12:30:01.702Z,19.58
2023-03-30T12:32:31.586Z,18.96
2023-03-30T12:34:59.235Z,19.55
2023-03-30T12:37:29.315Z,20.23
2023-03-30T12:40:06.335Z,20.64
2023-03-30T12:42:37.023Z,20.94
2023-03-30T12:45:07.644Z,21.11
2023-03-30T12:47:35.968Z,21.54
2023-03-30T12:50:18.677Z,21.33
2023-03-30T12:53:17.872Z,21.88
2023-03-30T12:55:45.726Z,22.09
2023-03-30T12:58:32.326Z,21.59
2023-03-30T13:01:02.879Z,21.04
2023-03-30T13:03:39.569Z,20.98
2023-03-30T13:06:14.977Z,20.89
2023-03-30T13:08:43.174Z,21.56
2023-03-30T13:11:22.466Z,21.93
2023-03-30T13:13:52.763Z,21.93
2023-03-30T13:16:39.257Z,21.41
2023-03-30T13:19:15.034Z,21.95
2023-03-30T13:21:50.970Z,22.03
2023-03-30T13:24:28.684Z,22.63
2023-03-30T13:27:10.553Z,23.25
2023-03-30T13:29:38.766Z,23.04
2023-03-30T13:32:06.424Z,23.52
2023-03-30T13:34:34.364Z,24.24
2023-03-30T13:37:04.721Z,23.96
2023-03-30T13:39:43.725Z,24.46
2023-03-30T13:42:14.413Z,24.37
2023-03-30T13:44:45.652Z,23.50
2023-03-30T13:47:23.008Z,24.16
2023-03-30T13:50:08.199Z,23.44
2023-03-30T13:52:38.675Z,24.00
2023-03-30T13:55:15.272Z,24.47
2023-03-30T13:57:44.409Z,24.89
2023-03-30T14:00:15.704Z,25.04
2023-03-30T14:02:43.344Z,25.05
2023-03-30T14:05:22.623Z,24.69
2023-03-30T14:07:50.296Z,24.23
2023-03-30T14:10:20.040Z,22.95
2023-03-30T14:12:55.371Z,23.03
2023-03-30T14:15:26.787Z,23.43
2023-03-30T14:17:59.103Z,22.65
2023-03-30T14:20:47.900Z,22.36
2023-03-30T14:23:24.749Z,21.46
2023-03-30T14:26:00.345Z,21.41
2023-03-30T14:28:29.220Z,21.34
2023-03-30T14:31:05.210Z,21.42
2023-03-30T14:33:35.859Z,21.40
2023-03-30T14:36:04.222Z,21.85
2023-03-30T14:38:39.577Z,22.21
2023-03-30T14:41:08.985Z,22.19
2023-03-30T14:43:40.716Z,22.31
2023-03-30T14:46:12.110Z,22.31
2023-03-30T14:48:42.148Z,22.26
2023-03-30T14:51:21.470Z,22.38
2023-03-30T14:53:50.196Z,22.46
2023-03-30T14:56:18.849Z,23.04
2023-03-30T14:58:47.797Z,23.66
2023-03-30T15:01:24.095Z,24.37
2023-03-30T15:03:52.674Z,24.43
2023-03-30T15:06:24.499Z,24.61
2023-03-30T15:08:52.485Z,24.24
2023-03-30T15:11:22.830Z,24.58
2023-03-30T15:13:52.878Z,24.75
2023-03-30T15:16:27.038Z,24.75
2023-03-30T15:19:00.215Z,25.31
2023-03-30T15:21:30.007Z,23.88
2023-03-30T15:23:58.921Z,23.47
2023-03-30T15:26:27.709Z,22.89
2023-03-30T15:28:59.283Z,21.96
2023-03-30T15:31:28.484Z,21.90
2023-03-30T15:34:01.861Z,21.68
2023-03-30T15:36:37.054Z,21.83
2023-03-30T15:39:19.044Z,21.54
2023-03-30T15:41:50.099Z,21.58
2023-03-30T15:44:19.147Z,21.72
2023-03-30T15:46:51.815Z,21.98
2023-03-30T15:49:20.995Z,21.87
2023-03-30T15:51:53.883Z,22.02
2023-03-30T15:54:34.344Z,21.81
2023-03-30T15:57:08.563Z,21.65
2023-03-30T15:59:39.744Z,21.51
2023-03-30T16:02:19.449Z,21.50
2023-03-30T16:04:49.317Z,21.55
2023-03-30T16:07:18.905Z,21.50
2023-03-30T16:09:46.890Z,21.51
2023-03-30T16:12:17.419Z,21.47
2023-03-30T16:14:46.947Z,21.43
2023-03-30T16:17:15.759Z,21.56
2023-03-30T16:19:44.018Z,21.51
2023-03-30T16:22:13.540Z,21.56
2023-03-30T16:24:42.486Z,21.30
2023-03-30T16:27:12.365Z,21.16
2023-03-30T16:29:40.251Z,20.76
2023-03-30T16:32:08.458Z,20.70
2023-03-30T16:34:37.231Z,20.49
2023-03-30T16:37:05.413Z,20.53
2023-03-30T16:39:33.260Z,20.70
2023-03-30T16:42:01.404Z,20.92
2023-03-30T16:44:29.101Z,20.83
2023-03-30T16:46:57.149Z,20.77
2023-03-30T16:49:26.107Z,20.90
2023-03-30T16:51:57.645Z,20.73
2023-03-30T16:54:32.549Z,20.15
2023-03-30T16:57:01.865Z,20.06
2023-03-30T16:59:31.102Z,20.28
2023-03-30T17:02:00.070Z,20.26
2023-03-30T17:04:28.195Z,20.48
2023-03-30T17:06:56.547Z,20.12
2023-03-30T17:09:24.616Z,20.54
2023-03-30T17:11:53.030Z,19.98
2023-03-30T17:14:21.076Z,20.02
2023-03-30T17:16:49.315Z,19.75
2023-03-30T17:19:17.401Z,19.98
2023-03-30T17:21:46.203Z,20.17
2023-03-30T17:24:16.515Z,19.83
2023-03-30T17:26:44.800Z,19.74
2023-03-30T17:29:12.762Z,19.59
2023-03-30T17:31:45.942Z,19.74
2023-03-30T17:34:14.839Z,19.66
2023-03-30T17:36:43.181Z,19.91
2023-03-30T17:39:14.943Z,19.91
2023-03-30T17:41:43.048Z,19.77
2023-03-30T17:44:10.922Z,19.72
2023-03-30T17:46:39.517Z,19.47
2023-03-30T17:49:14.873Z,19.71
2023-03-30T17:51:43.142Z,19.75
2023-03-30T17:54:11.003Z,19.27
2023-03-30T17:56:39.177Z,19.31
2023-03-30T17:59:10.053Z,19.41
2023-03-30T18:01:38.539Z,19.45
2023-03-30T18:04:06.943Z,19.63
2023-03-30T18:06:35.178Z,19.49
2023-03-30T18:09:03.110Z,19.19
2023-03-30T18:11:31.421Z,19.21
2023-03-30T18:13:59.094Z,19.22
2023-03-30T18:16:27.737Z,19.18
2023-03-30T18:18:57.844Z,19.34
2023-03-30T18:21:27.165Z,19.42
2023-03-30T18:23:54.942Z,19.44
2023-03-30T18:26:22.991Z,19.46
2023-03-30T18:28:51.304Z,19.48
2023-03-30T18:31:19.702Z,19.02
2023-03-30T18:33:47.632Z,19.11
2023-03-30T18:36:16.147Z,18.97
2023-03-30T18:38:44.299Z,18.92
2023-03-30T18:41:13.109Z,19.02
2023-03-30T18:43:41.170Z,19.18
2023-03-30T18:46:10.085Z,19.20
2023-03-30T18:48:37.829Z,19.09
2023-03-30T18:51:06.019Z,19.36
2023-03-30T18:53:33.826Z,19.52
2023-03-30T18:56:02.004Z,19.48
2023-03-30T18:58:31.508Z,19.20
2023-03-30T19:01:00.816Z,18.93
2023-03-30T19:03:30.411Z,18.80
2023-03-30T19:05:59.036Z,18.84
2023-03-30T19:08:27.356Z,19.01
2023-03-30T19:10:57.151Z,18.88
2023-03-30T19:13:26.013Z,18.93
2023-03-30T19:15:55.070Z,18.90
2023-03-30T19:18:23.229Z,18.71
2023-03-30T19:20:51.705Z,18.49
2023-03-30T19:23:21.906Z,18.77
2023-03-30T19:25:50.101Z,18.76
2023-03-30T19:28:17.926Z,18.88
2023-03-30T19:30:46.316Z,18.91
2023-03-30T19:33:17.125Z,18.86
2023-03-30T19:35:46.484Z,18.96
2023-03-30T19:38:15.166Z,19.03
2023-03-30T19:40:43.534Z,19.05
2023-03-30T19:43:11.600Z,19.06
2023-03-30T19:45:40.000Z,19.07
2023-03-30T19:48:08.090Z,18.80
2023-03-30T19:50:38.608Z,18.76
2023-03-30T19:53:06.418Z,18.75
2023-03-30T19:55:35.007Z,18.93
2023-03-30T19:58:02.882Z,18.84
2023-03-30T20:00:35.118Z,18.23
2023-03-30T20:03:03.568Z,18.67
2023-03-30T20:05:32.057Z,18.78
2023-03-30T20:08:03.534Z,18.49
2023-03-30T20:10:36.427Z,18.75
2023-03-30T20:13:04.335Z,18.90
2023-03-30T20:15:32.853Z,18.90
2023-03-30T20:18:00.721Z,18.93
2023-03-30T20:20:32.429Z,18.63
2023-03-30T20:23:01.111Z,18.49
2023-03-30T20:25:29.266Z,18.40
2023-03-30T20:27:57.024Z,18.50
2023-03-30T20:30:25.507Z,18.40
2023-03-30T20:33:06.947Z,18.45
2023-03-30T20:36:01.724Z,18.54
2023-03-30T20:38:29.514Z,18.54
2023-03-30T20:40:59.575Z,18.59
2023-03-30T20:43:40.534Z,18.50
2023-03-30T20:46:19.623Z,18.81
2023-03-30T20:48:54.241Z,18.45
2023-03-30T20:51:23.279Z,18.50
2023-03-30T20:53:51.176Z,18.45
2023-03-30T20:56:19.129Z,18.51
2023-03-30T20:58:46.908Z,18.33
2023-03-30T21:01:25.815Z,17.87
2023-03-30T21:03:58.596Z,17.91
2023-03-30T21:06:27.765Z,17.52
2023-03-30T21:08:56.795Z,17.76
2023-03-30T21:11:27.590Z,17.45
2023-03-30T21:13:56.190Z,17.63
2023-03-30T21:16:25.001Z,17.61
2023-03-30T21:18:52.735Z,17.46
2023-03-30T21:21:20.807Z,17.38
2023-03-30T21:23:48.938Z,17.35
2023-03-30T21:26:18.775Z,17.32
2023-03-30T21:28:46.430Z,17.51
2023-03-30T21:31:15.460Z,17.61
2023-03-30T21:33:43.328Z,17.61
2023-03-30T21:36:11.857Z,17.43
2023-03-30T21:38:39.835Z,17.32
2023-03-30T21:41:09.640Z,17.10
2023-03-30T21:43:40.089Z,16.88
2023-03-30T21:46:09.311Z,16.84
2023-03-30T21:48:38.275Z,16.90
2023-03-30T21:51:08.092Z,16.79
2023-03-30T21:53:36.050Z,16.75
2023-03-30T21:56:04.598Z,16.90
2023-03-30T21:58:32.374Z,16.98
2023-03-30T22:01:11.052Z,16.72
2023-03-30T22:03:41.086Z,16.86
2023-03-30T22:06:10.092Z,16.94
2023-03-30T22:08:38.102Z,16.73
2023-03-30T22:11:11.267Z,16.77
2023-03-30T22:13:38.810Z,16.89
2023-03-30T22:16:14.573Z,16.79
2023-03-30T22:18:43.038Z,16.41
2023-03-30T22:21:18.650Z,16.06
2023-03-30T22:23:46.640Z,15.77
2023-03-30T22:26:15.029Z,16.25
2023-03-30T22:28:43.290Z,16.30
2023-03-30T22:31:12.876Z,16.50
2023-03-30T22:33:40.574Z,16.65
2023-03-30T22:36:17.434Z,16.69
2023-03-30T22:38:48.387Z,16.40
2023-03-30T22:41:16.683Z,16.45
2023-03-30T22:43:44.783Z,16.46
2023-03-30T22:46:12.826Z,16.50
2023-03-30T22:48:44.322Z,16.53
2023-03-30T22:51:15.095Z,16.25
2023-03-30T22:53:42.715Z,16.27
2023-03-30T22:56:10.567Z,16.16
2023-03-30T22:58:38.106Z,16.28
2023-03-30T23:01:12.333Z,16.54
2023-03-30T23:03:40.232Z,16.42
2023-03-30T23:06:09.445Z,16.40
2023-03-30T23:08:37.331Z,16.22
2023-03-30T23:11:06.700Z,16.20
2023-03-30T23:13:42.344Z,16.22
2023-03-30T23:16:10.987Z,16.05
2023-03-30T23:18:38.985Z,16.19
2023-03-30T23:21:07.856Z,16.19
2023-03-30T23:23:36.018Z,16.09
2023-03-30T23:26:08.977Z,16.23
2023-03-30T23:28:39.276Z,16.41
2023-03-30T23:31:09.063Z,16.38
2023-03-30T23:33:36.739Z,16.38
2023-03-30T23:36:06.482Z,16.33
2023-03-30T23:38:34.402Z,16.48
2023-03-30T23:41:02.405Z,16.49
2023-03-30T23:43:30.045Z,16.43
2023-03-30T23:45:58.187Z,16.53
2023-03-30T23:48:25.850Z,16.39
2023-03-30T23:50:53.903Z,16.32
2023-03-30T23:53:21.502Z,16.14
2023-03-30T23:55:51.451Z,16.04
2023-03-30T23:58:19.352Z,15.69
